createdAt,value
2019-04-26T00:04:01.725Z,12.83
2019-04-26T00:09:22.144Z,9.83
2019-04-26T00:14:49.407Z,12.50
2019-04-26T00:19:52.653Z,11.57
2019-04-26T00:24:55.317Z,10.47
2019-04-26T00:29:58.219Z,13.03
2019-04-26T00:35:01.746Z,11.07
2019-04-26T00:40:05.274Z,18.00
2019-04-26T00:45:08.107Z,14.50
2019-04-26T00:50:13.735Z,13.53
2019-04-26T00:55:18.221Z,13.70
2019-04-26T01:00:23.539Z,15.00
2019-04-26T01:05:27.655Z,18.37
2019-04-26T01:10:30.147Z,16.87
2019-04-26T01:15:33.034Z,16.77
2019-04-26T01:20:37.302Z,14.67
2019-04-26T01:25:59.797Z,24.43
2019-04-26T01:31:05.106Z,16.57
2019-04-26T01:36:13.216Z,18.73
2019-04-26T01:41:21.376Z,16.17
2019-04-26T01:46:33.004Z,21.10
2019-04-26T01:51:42.469Z,17.30
2019-04-26T01:56:48.490Z,19.70
2019-04-26T02:02:09.935Z,20.67
2019-04-26T02:07:14.960Z,23.33
2019-04-26T02:12:17.878Z,23.57
2019-04-26T02:17:20.680Z,20.83
2019-04-26T02:22:32.438Z,24.70
2019-04-26T02:27:35.938Z,20.70
2019-04-26T02:32:39.435Z,19.20
2019-04-26T02:37:42.225Z,24.23
2019-04-26T02:42:47.272Z,21.40
2019-04-26T02:48:11.789Z,22.80
2019-04-26T02:53:31.041Z,22.47
2019-04-26T02:58:41.963Z,27.63
2019-04-26T03:03:45.441Z,20.87
2019-04-26T03:08:49.829Z,27.40
2019-04-26T03:14:18.830Z,25.67
2019-04-26T03:19:40.413Z,24.03
2019-04-26T03:24:51.229Z,29.50
2019-04-26T03:30:37.878Z,27.47
2019-04-26T03:36:16.841Z,28.13
2019-04-26T03:41:39.034Z,23.57
2019-04-26T03:46:49.487Z,30.50
2019-04-26T03:52:47.287Z,26.50
2019-04-26T03:57:56.199Z,25.30
2019-04-26T04:03:43.509Z,29.13
2019-04-26T04:08:51.036Z,22.30
2019-04-26T04:14:00.472Z,24.63
2019-04-26T04:19:27.058Z,24.03
2019-04-26T04:24:53.566Z,25.17
2019-04-26T04:30:38.682Z,29.20
2019-04-26T04:35:50.381Z,29.50
2019-04-26T04:41:19.175Z,32.73
2019-04-26T04:47:22.359Z,26.33
2019-04-26T04:52:27.291Z,26.80
2019-04-26T04:58:04.274Z,33.50
2019-04-26T05:03:30.568Z,25.83
2019-04-26T05:08:40.438Z,30.13
2019-04-26T05:13:50.023Z,32.47
2019-04-26T05:19:27.307Z,36.17
2019-04-26T05:24:41.070Z,39.73
2019-04-26T05:30:31.222Z,35.77
2019-04-26T05:36:10.489Z,31.97
2019-04-26T05:41:39.031Z,31.07
2019-04-26T05:47:29.857Z,31.13
2019-04-26T05:53:12.840Z,40.83
2019-04-26T05:58:41.287Z,33.07
2019-04-26T06:04:44.899Z,34.07
2019-04-26T06:10:36.486Z,35.17
2019-04-26T06:15:55.943Z,34.27
2019-04-26T06:21:16.446Z,32.87
2019-04-26T06:26:49.019Z,29.60
2019-04-26T06:32:02.541Z,33.10
2019-04-26T06:37:23.567Z,35.83
2019-04-26T06:42:44.687Z,30.73
2019-04-26T06:47:58.822Z,27.43
2019-04-26T06:53:11.465Z,25.37
2019-04-26T06:58:44.707Z,29.80
2019-04-26T07:04:17.264Z,24.67
2019-04-26T07:09:23.786Z,28.80
2019-04-26T07:15:03.710Z,32.53
2019-04-26T07:20:24.816Z,27.17
2019-04-26T07:26:07.912Z,36.63
2019-04-26T07:31:30.779Z,30.67
2019-04-26T07:37:23.370Z,34.27
2019-04-26T07:43:06.039Z,36.50
2019-04-26T07:48:36.144Z,34.30
2019-04-26T07:53:54.056Z,41.87
2019-04-26T07:59:22.759Z,43.07
2019-04-26T08:04:33.314Z,44.17
2019-04-26T08:09:40.179Z,40.43
2019-04-26T08:15:07.014Z,39.63
2019-04-26T08:20:36.829Z,38.03
2019-04-26T08:25:42.858Z,36.60
2019-04-26T08:30:52.928Z,36.87
2019-04-26T08:35:59.109Z,37.70
2019-04-26T08:41:04.933Z,41.53
2019-04-26T08:46:32.230Z,44.20
2019-04-26T08:51:39.669Z,46.40
2019-04-26T08:56:45.877Z,42.20
2019-04-26T09:01:56.073Z,43.77
2019-04-26T09:07:05.350Z,37.37
2019-04-26T09:12:22.551Z,41.97
2019-04-26T09:17:17.821Z,43.87
2019-04-26T09:22:43.248Z,37.00
2019-04-26T09:28:05.824Z,41.27
2019-04-26T09:33:16.821Z,34.47
2019-04-26T09:38:20.125Z,35.53
2019-04-26T09:43:39.877Z,53.93
2019-04-26T09:48:50.406Z,41.37
2019-04-26T09:53:53.043Z,32.10
2019-04-26T09:58:56.539Z,37.47
2019-04-26T10:03:59.997Z,38.93
2019-04-26T10:09:05.072Z,34.83
2019-04-26T10:14:12.300Z,39.10
2019-04-26T10:19:20.858Z,30.70
2019-04-26T10:24:23.957Z,33.73
2019-04-26T10:29:27.277Z,38.40
2019-04-26T10:34:30.147Z,30.93
2019-04-26T10:39:37.028Z,30.93
2019-04-26T10:44:41.149Z,31.73
2019-04-26T10:49:47.285Z,30.97
2019-04-26T10:55:03.211Z,31.40
2019-04-26T11:00:07.817Z,29.30
2019-04-26T11:05:11.714Z,27.50
2019-04-26T11:10:16.422Z,27.53
2019-04-26T11:15:20.109Z,30.00
2019-04-26T11:20:23.406Z,27.47
2019-04-26T11:25:28.267Z,27.43
2019-04-26T11:30:34.250Z,26.07
2019-04-26T11:35:36.994Z,27.17
2019-04-26T11:40:40.278Z,20.57
2019-04-26T11:45:45.407Z,16.60
2019-04-26T11:50:52.215Z,23.87
2019-04-26T11:55:53.875Z,14.20
2019-04-26T12:01:00.085Z,12.00
2019-04-26T12:06:22.505Z,11.17
2019-04-26T12:11:32.732Z,10.30
2019-04-26T12:16:31.176Z,17.37
2019-04-26T12:21:35.112Z,18.30
2019-04-26T13:00:54.689Z,8.93
2019-04-26T13:05:58.967Z,7.70
2019-04-26T13:11:15.286Z,6.00
2019-04-26T13:16:36.072Z,6.23
2019-04-26T13:21:39.079Z,8.73
2019-04-26T13:26:42.252Z,5.67
2019-04-26T13:43:07.904Z,3.87
2019-04-26T13:48:29.022Z,3.60
2019-04-26T13:53:32.244Z,3.13
2019-04-26T13:58:35.501Z,3.97
2019-04-26T14:03:38.606Z,2.90
2019-04-26T14:08:41.876Z,4.40
2019-04-26T14:13:45.181Z,3.33
2019-04-26T14:18:48.702Z,5.73
2019-04-26T14:24:24.037Z,5.03
2019-04-26T14:29:28.452Z,3.40
2019-04-26T14:34:30.061Z,4.20
2019-04-26T14:39:43.059Z,4.80
2019-04-26T14:44:48.880Z,6.53
2019-04-26T14:49:43.246Z,3.97
2019-04-26T14:54:47.590Z,3.53
2019-04-26T14:59:57.017Z,2.97
2019-04-26T15:05:25.094Z,3.90
2019-04-26T15:10:43.856Z,9.13
2019-04-26T15:15:42.234Z,4.77
2019-04-26T15:20:46.198Z,4.73
2019-04-26T15:25:49.902Z,7.70
2019-04-26T15:30:52.891Z,5.43
2019-04-26T15:35:56.188Z,7.13
2019-04-26T15:41:22.320Z,7.30
2019-04-26T15:46:48.546Z,6.90
2019-04-26T15:51:49.648Z,7.60
2019-04-26T15:56:53.818Z,7.23
2019-04-26T16:01:58.348Z,9.43
2019-04-26T16:07:02.430Z,13.43
2019-04-26T16:12:05.648Z,8.20
2019-04-26T16:17:08.587Z,12.80
2019-04-26T16:22:13.036Z,14.60
2019-04-26T16:27:16.771Z,14.73
2019-04-26T16:32:47.318Z,13.50
2019-04-26T16:37:49.960Z,20.30
2019-04-26T16:42:59.477Z,19.70
2019-04-26T16:48:02.149Z,17.83
2019-04-26T16:53:23.197Z,21.30
2019-04-26T16:58:15.623Z,16.33
2019-04-26T17:03:20.630Z,19.97
2019-04-26T17:08:24.353Z,19.30
2019-04-26T17:13:29.930Z,17.43
2019-04-26T17:18:33.124Z,21.30
2019-04-26T17:23:55.740Z,17.50
2019-04-26T17:29:02.381Z,17.07
2019-04-26T17:34:06.028Z,22.40
2019-04-26T17:39:16.899Z,20.83
2019-04-26T17:44:15.069Z,16.60
2019-04-26T17:49:21.416Z,15.00
2019-04-26T17:54:41.443Z,14.43
2019-04-26T17:59:34.602Z,15.07
2019-04-26T18:04:37.427Z,14.23
2019-04-26T18:09:45.882Z,14.07
2019-04-26T18:14:45.291Z,14.57
2019-04-26T18:20:08.234Z,19.13
2019-04-26T18:25:13.011Z,16.80
2019-04-26T18:30:17.191Z,19.10
2019-04-26T18:35:20.093Z,17.50
2019-04-26T18:40:23.623Z,22.27
2019-04-26T18:45:30.102Z,22.67
2019-04-26T18:50:36.526Z,21.17
2019-04-26T18:55:38.650Z,31.00
2019-04-26T19:00:43.696Z,30.70
2019-04-26T19:05:47.388Z,34.10
2019-04-26T19:10:59.200Z,36.17
2019-04-26T19:16:06.209Z,46.73
2019-04-26T19:21:18.907Z,49.67
2019-04-26T19:26:32.364Z,56.50
2019-04-26T19:31:28.474Z,62.10
2019-04-26T19:36:33.031Z,67.47
2019-04-26T19:41:36.701Z,67.33
2019-04-26T19:46:49.039Z,74.60
2019-04-26T19:52:17.570Z,75.20
2019-04-26T19:57:23.946Z,62.77
2019-04-26T20:02:35.826Z,73.10
2019-04-26T20:07:33.397Z,76.70
2019-04-26T20:12:38.191Z,65.70
2019-04-26T20:17:41.821Z,70.67
2019-04-26T20:22:45.281Z,64.03
2019-04-26T20:27:48.920Z,78.17
2019-04-26T20:32:52.430Z,66.03
2019-04-26T20:38:01.074Z,75.33
2019-04-26T20:43:05.848Z,73.67
2019-04-26T20:48:07.172Z,87.20
2019-04-26T20:53:12.029Z,75.90
2019-04-26T20:58:15.990Z,67.93
2019-04-26T21:03:23.809Z,76.40
2019-04-26T21:08:26.768Z,77.10
2019-04-26T21:13:30.518Z,76.50
2019-04-26T21:18:40.221Z,69.77
2019-04-26T21:23:41.724Z,71.00
2019-04-26T21:29:03.638Z,70.27
2019-04-26T21:34:12.485Z,66.10
2019-04-26T21:39:25.292Z,73.07
2019-04-26T21:44:29.575Z,69.30
2019-04-26T21:49:35.729Z,53.70
2019-04-26T21:54:38.654Z,58.43
2019-04-26T21:59:44.124Z,64.03
2019-04-26T22:04:47.802Z,62.83
2019-04-26T22:10:16.710Z,57.37
2019-04-26T22:15:29.478Z,56.97
2019-04-26T22:20:37.458Z,58.53
2019-04-26T22:25:42.835Z,56.40
2019-04-26T22:30:46.108Z,62.07
2019-04-26T22:35:50.575Z,58.63
2019-04-26T22:40:56.245Z,53.93
2019-04-26T22:46:28.331Z,60.33
2019-04-26T22:51:28.507Z,57.80
2019-04-26T22:56:36.611Z,42.93
2019-04-26T23:01:39.165Z,46.13
2019-04-26T23:06:47.036Z,45.33
2019-04-26T23:11:54.304Z,42.53
2019-04-26T23:17:27.156Z,49.03
2019-04-26T23:22:33.633Z,49.77
2019-04-26T23:27:36.657Z,50.17
2019-04-26T23:32:39.197Z,44.37
2019-04-26T23:37:42.498Z,38.37
2019-04-26T23:42:47.550Z,31.70
2019-04-26T23:47:50.547Z,31.97
2019-04-26T23:52:54.281Z,34.53
2019-04-26T23:57:57.158Z,36.13
